createdAt,value
2023-06-14T00:00:55.340Z,22.33
2023-06-14T00:03:26.200Z,22.28
2023-06-14T00:05:56.433Z,22.22
2023-06-14T00:08:27.013Z,22.15
2023-06-14T00:10:57.068Z,22.10
2023-06-14T00:13:27.023Z,22.01
2023-06-14T00:15:59.657Z,21.95
2023-06-14T00:18:32.218Z,21.92
2023-06-14T00:21:03.490Z,21.90
2023-06-14T00:23:33.456Z,21.86
2023-06-14T00:26:03.450Z,21.82
2023-06-14T00:28:33.468Z,21.77
2023-06-14T00:31:05.997Z,21.70
2023-06-14T00:33:36.014Z,21.66
2023-06-14T00:36:06.008Z,21.64
2023-06-14T00:38:36.435Z,21.63
2023-06-14T00:41:06.472Z,21.66
2023-06-14T00:43:36.390Z,21.65
2023-06-14T00:46:09.100Z,21.66
2023-06-14T00:48:40.399Z,21.71
2023-06-14T00:51:11.182Z,21.68
2023-06-14T00:53:42.237Z,21.65
2023-06-14T00:56:14.491Z,21.66
2023-06-14T00:58:45.036Z,21.71
2023-06-14T01:01:17.710Z,21.68
2023-06-14T01:03:47.810Z,21.67
2023-06-14T01:06:28.457Z,21.69
2023-06-14T01:09:11.576Z,21.70
2023-06-14T01:11:51.836Z,21.69
2023-06-14T01:14:22.522Z,21.71
2023-06-14T01:16:56.604Z,21.69
2023-06-14T01:19:27.385Z,21.65
2023-06-14T01:21:57.486Z,21.58
2023-06-14T01:24:33.468Z,21.46
2023-06-14T01:27:04.872Z,21.40
2023-06-14T01:29:37.555Z,21.36
2023-06-14T01:32:08.631Z,21.35
2023-06-14T01:34:38.853Z,21.31
2023-06-14T01:37:09.279Z,21.25
2023-06-14T01:39:42.164Z,21.20
2023-06-14T01:42:12.433Z,21.15
2023-06-14T01:44:42.756Z,21.12
2023-06-14T01:47:13.702Z,21.11
2023-06-14T01:49:44.191Z,21.07
2023-06-14T01:52:14.997Z,21.03
2023-06-14T01:54:49.086Z,21.03
2023-06-14T01:57:19.326Z,21.00
2023-06-14T01:59:50.854Z,20.96
2023-06-14T02:02:21.170Z,20.91
2023-06-14T02:04:51.437Z,20.88
2023-06-14T02:07:21.634Z,20.82
2023-06-14T02:09:54.325Z,20.79
2023-06-14T02:12:24.227Z,20.75
2023-06-14T02:14:54.161Z,20.72
2023-06-14T02:17:24.383Z,20.72
2023-06-14T02:19:54.673Z,20.71
2023-06-14T02:22:24.657Z,20.74
2023-06-14T02:25:02.098Z,20.74
2023-06-14T02:27:32.816Z,20.72
2023-06-14T02:30:02.823Z,20.72
2023-06-14T02:32:33.171Z,20.72
2023-06-14T02:35:03.568Z,20.71
2023-06-14T02:37:33.585Z,20.71
2023-06-14T02:40:09.496Z,20.72
2023-06-14T02:42:39.401Z,20.71
2023-06-14T02:45:11.048Z,20.71
2023-06-14T02:47:41.306Z,20.68
2023-06-14T02:50:12.862Z,20.66
2023-06-14T02:52:43.187Z,20.65
2023-06-14T02:55:15.961Z,20.60
2023-06-14T02:57:46.050Z,20.55
2023-06-14T03:00:17.119Z,20.48
2023-06-14T03:02:48.017Z,20.38
2023-06-14T03:05:22.706Z,20.29
2023-06-14T03:07:52.703Z,20.23
2023-06-14T03:10:30.978Z,20.18
2023-06-14T03:13:02.474Z,20.11
2023-06-14T03:15:35.069Z,20.09
2023-06-14T03:18:05.224Z,20.06
2023-06-14T03:20:35.333Z,20.02
2023-06-14T03:23:07.133Z,19.96
2023-06-14T03:25:39.953Z,19.92
2023-06-14T03:28:09.931Z,19.87
2023-06-14T03:30:39.949Z,19.86
2023-06-14T03:33:10.237Z,19.84
2023-06-14T03:35:41.163Z,19.82
2023-06-14T03:38:11.268Z,19.80
2023-06-14T03:40:43.874Z,19.77
2023-06-14T03:43:13.990Z,19.74
2023-06-14T03:45:44.568Z,19.73
2023-06-14T03:48:14.733Z,19.70
2023-06-14T03:50:45.969Z,19.65
2023-06-14T03:53:17.153Z,19.62
2023-06-14T03:58:22.834Z,19.58
2023-06-14T04:00:52.830Z,19.53
2023-06-14T04:03:31.267Z,19.50
2023-06-14T04:06:04.169Z,19.47
2023-06-14T04:08:34.378Z,19.45
2023-06-14T04:11:06.922Z,19.37
2023-06-14T04:13:37.519Z,19.36
2023-06-14T04:16:09.928Z,19.38
2023-06-14T04:18:39.918Z,19.40
2023-06-14T04:21:09.875Z,19.44
2023-06-14T04:23:39.939Z,19.48
2023-06-14T04:26:12.618Z,19.45
2023-06-14T04:28:42.645Z,19.46
2023-06-14T04:31:12.994Z,19.48
2023-06-14T04:33:45.266Z,19.53
2023-06-14T04:36:19.068Z,19.58
2023-06-14T04:38:50.556Z,19.61
2023-06-14T04:41:24.315Z,19.61
2023-06-14T04:43:54.943Z,19.62
2023-06-14T04:46:25.289Z,19.65
2023-06-14T04:48:55.788Z,19.70
2023-06-14T04:51:31.165Z,19.73
2023-06-14T04:54:02.592Z,19.74
2023-06-14T04:56:36.142Z,19.71
2023-06-14T04:59:06.488Z,19.69
2023-06-14T05:01:36.898Z,19.63
2023-06-14T05:04:07.874Z,19.56
2023-06-14T05:06:37.964Z,19.52
2023-06-14T05:09:07.970Z,19.50
2023-06-14T05:11:41.193Z,19.52
2023-06-14T05:14:11.293Z,19.50
2023-06-14T05:16:41.260Z,19.50
2023-06-14T05:19:11.457Z,19.53
2023-06-14T05:21:43.608Z,19.55
2023-06-14T05:24:14.176Z,19.56
2023-06-14T05:26:47.022Z,19.55
2023-06-14T05:29:17.473Z,19.52
2023-06-14T05:31:47.553Z,19.54
2023-06-14T05:34:17.622Z,19.53
2023-06-14T05:36:48.063Z,19.56
2023-06-14T05:39:19.768Z,19.58
2023-06-14T05:41:52.427Z,19.58
2023-06-14T05:44:22.468Z,19.59
2023-06-14T05:46:52.397Z,19.60
2023-06-14T05:49:22.446Z,19.61
2023-06-14T05:51:52.560Z,19.60
2023-06-14T05:54:22.495Z,19.63
2023-06-14T05:56:55.758Z,19.67
2023-06-14T05:59:25.717Z,19.69
2023-06-14T06:01:55.677Z,19.74
2023-06-14T06:04:25.987Z,19.75
2023-06-14T06:06:56.154Z,19.76
2023-06-14T06:09:26.236Z,19.78
2023-06-14T06:11:58.809Z,19.81
2023-06-14T06:14:28.815Z,19.86
2023-06-14T06:16:58.880Z,19.92
2023-06-14T06:19:28.936Z,20.02
2023-06-14T06:21:58.905Z,20.11
2023-06-14T06:24:28.940Z,20.19
2023-06-14T06:27:01.665Z,20.30
2023-06-14T06:29:31.693Z,20.42
2023-06-14T06:32:01.631Z,20.60
2023-06-14T06:34:31.568Z,20.85
2023-06-14T06:37:02.440Z,21.13
2023-06-14T06:39:32.337Z,21.43
2023-06-14T06:42:04.979Z,21.75
2023-06-14T06:44:35.053Z,22.09
2023-06-14T06:47:05.002Z,22.43
2023-06-14T06:49:35.028Z,22.69
2023-06-14T06:52:06.255Z,22.93
2023-06-14T06:54:37.419Z,23.23
2023-06-14T06:57:10.183Z,23.52
2023-06-14T06:59:40.172Z,23.75
2023-06-14T07:02:10.627Z,23.77
2023-06-14T07:04:40.676Z,23.91
2023-06-14T07:07:10.804Z,24.04
2023-06-14T07:09:42.009Z,24.29
2023-06-14T07:12:15.357Z,24.55
2023-06-14T07:14:45.366Z,24.81
2023-06-14T07:17:15.444Z,24.98
2023-06-14T07:19:45.896Z,25.13
2023-06-14T07:22:15.952Z,25.32
2023-06-14T07:24:46.379Z,25.48
2023-06-14T07:27:19.014Z,25.64
2023-06-14T07:29:50.310Z,25.92
2023-06-14T07:32:20.296Z,26.13
2023-06-14T07:34:50.359Z,26.34
2023-06-14T07:37:20.261Z,26.58
2023-06-14T07:39:50.267Z,26.76
2023-06-14T07:42:22.865Z,26.93
2023-06-14T07:44:53.678Z,27.06
2023-06-14T07:47:23.766Z,27.15
2023-06-14T07:49:53.935Z,27.30
2023-06-14T07:52:23.931Z,27.61
2023-06-14T07:54:53.964Z,27.92
2023-06-14T07:57:26.689Z,28.01
2023-06-14T07:59:56.719Z,27.91
2023-06-14T08:02:28.099Z,27.69
2023-06-14T08:04:58.551Z,27.86
2023-06-14T08:07:28.598Z,28.18
2023-06-14T08:10:01.624Z,28.48
2023-06-14T08:12:34.334Z,28.58
2023-06-14T08:15:13.960Z,28.73
2023-06-14T08:17:46.759Z,28.85
2023-06-14T08:20:18.327Z,28.90
2023-06-14T08:22:50.711Z,28.85
2023-06-14T08:25:20.825Z,28.82
2023-06-14T08:27:53.529Z,28.72
2023-06-14T08:30:23.802Z,28.73
2023-06-14T08:35:31.372Z,29.09
2023-06-14T08:38:01.303Z,29.27
2023-06-14T08:40:33.879Z,29.42
2023-06-14T08:43:06.925Z,29.55
2023-06-14T08:45:36.930Z,29.56
2023-06-14T08:48:08.993Z,29.60
2023-06-14T08:50:40.833Z,29.76
2023-06-14T08:53:14.770Z,29.94
2023-06-14T08:55:49.114Z,30.24
2023-06-14T08:58:21.720Z,30.30
2023-06-14T09:00:53.614Z,30.20
2023-06-14T09:03:24.511Z,30.27
2023-06-14T09:05:55.773Z,30.29
2023-06-14T09:08:26.256Z,30.34
2023-06-14T09:10:56.656Z,30.47
2023-06-14T09:13:32.036Z,30.52
2023-06-14T09:16:02.287Z,30.60
2023-06-14T09:18:39.715Z,30.58
2023-06-14T09:21:11.146Z,30.73
2023-06-14T09:23:42.939Z,30.87
2023-06-14T09:26:13.698Z,30.92
2023-06-14T09:28:49.505Z,30.99
2023-06-14T09:31:21.019Z,31.13
2023-06-14T09:33:53.482Z,31.30
2023-06-14T09:36:26.940Z,31.33
2023-06-14T09:38:57.587Z,31.39
2023-06-14T09:41:40.657Z,31.43
2023-06-14T09:44:19.888Z,31.45
2023-06-14T09:46:52.728Z,31.38
2023-06-14T09:49:23.018Z,31.49
2023-06-14T09:51:57.125Z,31.62
2023-06-14T09:54:29.634Z,31.90
2023-06-14T09:57:00.530Z,32.13
2023-06-14T09:59:36.994Z,32.07
2023-06-14T10:02:15.564Z,32.08
2023-06-14T10:04:51.706Z,32.02
2023-06-14T10:07:24.932Z,31.80
2023-06-14T10:09:57.010Z,31.75
2023-06-14T10:12:26.937Z,31.90
2023-06-14T10:15:00.513Z,32.00
2023-06-14T10:17:39.896Z,32.11
2023-06-14T10:20:30.400Z,32.10
2023-06-14T10:23:06.101Z,32.12
2023-06-14T10:25:37.294Z,32.14
2023-06-14T10:28:18.236Z,32.17
2023-06-14T10:31:09.189Z,31.94
2023-06-14T10:33:42.452Z,32.14
2023-06-14T10:36:29.649Z,32.26
2023-06-14T10:39:09.627Z,32.36
2023-06-14T10:41:42.115Z,32.38
2023-06-14T10:44:36.288Z,32.41
2023-06-14T10:47:12.857Z,32.57
2023-06-14T10:49:45.803Z,32.69
2023-06-14T10:52:20.973Z,32.88
2023-06-14T10:55:03.278Z,32.80
2023-06-14T10:57:39.042Z,32.91
2023-06-14T11:00:23.659Z,33.06
2023-06-14T11:03:24.620Z,32.67
2023-06-14T11:05:58.343Z,32.84
2023-06-14T11:08:43.566Z,33.17
2023-06-14T11:11:14.754Z,33.37
2023-06-14T11:13:48.226Z,33.57
2023-06-14T11:16:20.467Z,33.85
2023-06-14T11:18:50.923Z,33.94
2023-06-14T11:21:26.451Z,33.96
2023-06-14T11:23:57.410Z,34.11
2023-06-14T11:26:31.508Z,33.98
2023-06-14T11:29:03.686Z,33.99
2023-06-14T11:31:34.180Z,33.79
2023-06-14T11:34:05.269Z,33.65
2023-06-14T11:36:38.601Z,33.33
2023-06-14T11:39:10.029Z,33.29
2023-06-14T11:41:44.857Z,33.35
2023-06-14T11:44:15.824Z,33.63
2023-06-14T11:46:45.836Z,33.63
2023-06-14T11:49:15.837Z,33.80
2023-06-14T11:51:48.512Z,33.83
2023-06-14T11:54:18.910Z,33.92
2023-06-14T11:56:48.946Z,34.00
2023-06-14T11:59:18.937Z,33.88
2023-06-14T12:01:49.446Z,33.82
2023-06-14T12:04:27.928Z,33.79
2023-06-14T12:07:00.579Z,33.94
2023-06-14T12:09:30.545Z,33.94
2023-06-14T12:12:05.178Z,34.02
2023-06-14T12:14:35.481Z,34.01
2023-06-14T12:17:10.103Z,34.01
2023-06-14T12:19:46.643Z,34.10
2023-06-14T12:22:19.837Z,33.98
2023-06-14T12:24:50.474Z,33.98
2023-06-14T12:27:21.699Z,33.93
2023-06-14T12:30:03.138Z,34.05
2023-06-14T12:32:35.251Z,34.16
2023-06-14T12:35:07.185Z,34.21
2023-06-14T12:37:39.855Z,34.31
2023-06-14T12:40:12.831Z,34.53
2023-06-14T12:42:42.868Z,34.61
2023-06-14T12:45:15.141Z,34.78
2023-06-14T12:47:45.351Z,34.72
2023-06-14T12:50:18.654Z,34.53
2023-06-14T12:52:51.604Z,34.50
2023-06-14T12:55:21.831Z,34.58
2023-06-14T12:57:52.812Z,34.71
2023-06-14T13:00:24.088Z,34.70
2023-06-14T13:02:54.720Z,34.57
2023-06-14T13:05:24.656Z,34.73
2023-06-14T13:07:59.745Z,34.55
2023-06-14T13:10:30.578Z,34.45
2023-06-14T13:13:01.759Z,34.57
2023-06-14T13:15:31.734Z,34.74
2023-06-14T13:18:02.060Z,34.71
2023-06-14T13:20:32.086Z,34.84
2023-06-14T13:23:07.177Z,34.91
2023-06-14T13:25:37.065Z,35.00
2023-06-14T13:28:08.714Z,34.90
2023-06-14T13:30:38.726Z,34.61
2023-06-14T13:33:08.942Z,34.83
2023-06-14T13:35:38.997Z,34.96
2023-06-14T13:38:13.630Z,34.86
2023-06-14T13:40:43.697Z,34.89
2023-06-14T13:43:13.723Z,35.08
2023-06-14T13:45:43.692Z,35.08
2023-06-14T13:48:13.892Z,35.16
2023-06-14T13:50:43.845Z,35.12
2023-06-14T13:53:16.452Z,35.17
2023-06-14T13:55:46.456Z,35.12
2023-06-14T13:58:16.436Z,34.99
2023-06-14T14:00:46.492Z,34.92
2023-06-14T14:03:16.550Z,35.03
2023-06-14T14:05:46.760Z,34.65
2023-06-14T14:08:19.272Z,34.61
2023-06-14T14:10:49.333Z,34.75
2023-06-14T14:13:19.412Z,34.49
2023-06-14T14:15:50.441Z,34.56
2023-06-14T14:18:22.125Z,34.46
2023-06-14T14:20:52.693Z,34.58
2023-06-14T14:23:26.023Z,34.71
2023-06-14T14:25:55.997Z,34.51
2023-06-14T14:28:25.982Z,34.63
2023-06-14T14:30:56.281Z,34.64
2023-06-14T14:33:26.227Z,34.48
2023-06-14T14:35:56.193Z,34.52
2023-06-14T14:38:28.727Z,34.62
2023-06-14T14:40:58.759Z,34.54
2023-06-14T14:43:31.461Z,34.32
2023-06-14T14:46:01.581Z,34.36
2023-06-14T14:48:31.607Z,34.43
2023-06-14T14:51:01.701Z,34.48
2023-06-14T14:53:34.381Z,34.34
2023-06-14T14:56:06.949Z,34.20
2023-06-14T14:58:37.277Z,34.17
2023-06-14T15:01:07.348Z,34.00
2023-06-14T15:03:53.562Z,33.99
2023-06-14T15:06:30.457Z,33.91
2023-06-14T15:09:03.043Z,33.98
2023-06-14T15:11:33.133Z,34.03
2023-06-14T15:14:03.195Z,34.02
2023-06-14T15:16:33.394Z,34.14
2023-06-14T15:19:03.404Z,34.28
2023-06-14T15:21:33.506Z,34.06
2023-06-14T15:24:09.752Z,33.95
2023-06-14T15:26:39.727Z,34.09
2023-06-14T15:29:09.676Z,33.99
2023-06-14T15:31:39.717Z,33.98
2023-06-14T15:34:09.902Z,33.97
2023-06-14T15:36:40.383Z,33.88
2023-06-14T15:39:13.220Z,33.66
2023-06-14T15:41:43.204Z,33.54
2023-06-14T15:44:13.617Z,33.54
2023-06-14T15:46:43.642Z,33.48
2023-06-14T15:49:14.708Z,33.41
2023-06-14T15:51:48.103Z,33.51
2023-06-14T15:54:20.674Z,33.47
2023-06-14T15:56:50.633Z,33.30
2023-06-14T15:59:20.611Z,33.32
2023-06-14T16:01:50.548Z,33.24
2023-06-14T16:04:20.727Z,32.96
2023-06-14T16:06:50.799Z,32.86
2023-06-14T16:09:23.463Z,32.85
2023-06-14T16:11:53.415Z,32.79
2023-06-14T16:14:23.387Z,32.72
2023-06-14T16:16:55.460Z,32.49
2023-06-14T16:19:28.753Z,32.42
2023-06-14T16:21:59.998Z,32.48
2023-06-14T16:24:32.792Z,32.46
2023-06-14T16:27:03.586Z,32.50
2023-06-14T16:29:33.613Z,32.53
2023-06-14T16:32:03.620Z,32.53
2023-06-14T16:34:36.168Z,32.55
2023-06-14T16:37:06.834Z,32.42
2023-06-14T16:39:39.870Z,32.41
2023-06-14T16:42:11.900Z,32.29
2023-06-14T16:44:42.002Z,32.23
2023-06-14T16:47:13.703Z,32.19
2023-06-14T16:49:43.751Z,31.98
2023-06-14T16:52:13.817Z,31.79
2023-06-14T16:54:46.307Z,31.76
2023-06-14T16:57:16.624Z,31.79
2023-06-14T16:59:51.044Z,31.73
2023-06-14T17:02:21.165Z,31.56
2023-06-14T17:04:51.213Z,31.59
2023-06-14T17:07:21.595Z,31.62
2023-06-14T17:09:54.176Z,31.55
2023-06-14T17:12:24.132Z,31.52
2023-06-14T17:14:54.095Z,31.42
2023-06-14T17:17:24.260Z,31.22
2023-06-14T17:19:54.173Z,31.15
2023-06-14T17:22:24.148Z,31.17
2023-06-14T17:24:57.040Z,31.04
2023-06-14T17:27:27.047Z,30.91
2023-06-14T17:29:57.085Z,30.89
2023-06-14T17:32:27.088Z,30.84
2023-06-14T17:34:57.021Z,30.77
2023-06-14T17:37:28.111Z,30.75
2023-06-14T17:40:00.658Z,30.73
2023-06-14T17:42:30.634Z,30.74
2023-06-14T17:45:00.643Z,30.62
2023-06-14T17:47:36.410Z,30.51
2023-06-14T17:50:07.584Z,30.42
2023-06-14T17:52:37.620Z,30.37
2023-06-14T17:55:11.267Z,29.95
2023-06-14T17:57:41.237Z,29.79
2023-06-14T18:00:12.874Z,29.71
2023-06-14T18:02:44.448Z,29.62
2023-06-14T18:05:16.390Z,29.63
2023-06-14T18:07:46.422Z,29.47
2023-06-14T18:10:20.197Z,29.33
2023-06-14T18:12:50.208Z,29.18
2023-06-14T18:15:20.312Z,29.05
2023-06-14T18:17:51.865Z,29.00
2023-06-14T18:20:22.038Z,28.95
2023-06-14T18:22:53.631Z,28.89
2023-06-14T18:25:27.839Z,28.90
2023-06-14T18:27:57.826Z,28.84
2023-06-14T18:30:28.354Z,28.84
2023-06-14T18:32:58.404Z,28.81
2023-06-14T18:35:28.516Z,28.78
2023-06-14T18:37:58.501Z,28.74
2023-06-14T18:40:31.224Z,28.70
2023-06-14T18:43:03.123Z,28.64
2023-06-14T18:45:34.412Z,28.63
2023-06-14T18:48:04.473Z,28.47
2023-06-14T18:50:35.644Z,28.35
2023-06-14T18:53:05.607Z,28.27
2023-06-14T18:55:38.154Z,28.27
2023-06-14T18:58:08.042Z,28.29
2023-06-14T19:00:38.063Z,28.16
2023-06-14T19:03:08.233Z,28.13
2023-06-14T19:05:38.369Z,28.07
2023-06-14T19:08:10.588Z,27.90
2023-06-14T19:10:43.392Z,27.76
2023-06-14T19:13:13.354Z,27.61
2023-06-14T19:15:44.871Z,27.45
2023-06-14T19:18:15.016Z,27.34
2023-06-14T19:20:45.050Z,27.29
2023-06-14T19:23:15.068Z,27.18
2023-06-14T19:25:47.613Z,27.14
2023-06-14T19:28:17.701Z,27.05
2023-06-14T19:30:47.700Z,26.99
2023-06-14T19:33:18.278Z,26.93
2023-06-14T19:35:48.410Z,26.86
2023-06-14T19:38:19.623Z,26.78
2023-06-14T19:40:52.233Z,26.76
2023-06-14T19:43:22.148Z,26.67
2023-06-14T19:45:52.121Z,26.63
2023-06-14T19:48:22.271Z,26.56
2023-06-14T19:50:52.568Z,26.52
2023-06-14T19:53:22.785Z,26.48
2023-06-14T19:55:57.788Z,26.48
2023-06-14T19:58:27.756Z,26.44
2023-06-14T20:00:57.739Z,26.40
2023-06-14T20:03:27.831Z,26.35
2023-06-14T20:05:58.202Z,26.21
2023-06-14T20:08:31.851Z,26.11
2023-06-14T20:11:04.446Z,26.06
2023-06-14T20:13:34.429Z,26.01
2023-06-14T20:16:04.655Z,25.95
2023-06-14T20:18:34.720Z,25.90
2023-06-14T20:21:06.345Z,25.87
2023-06-14T20:23:37.451Z,25.82
2023-06-14T20:26:10.136Z,25.76
2023-06-14T20:28:40.258Z,25.69
2023-06-14T20:31:12.877Z,25.63
2023-06-14T20:33:42.848Z,25.57
2023-06-14T20:36:12.910Z,25.50
2023-06-14T20:38:42.939Z,25.41
2023-06-14T20:41:16.388Z,25.33
2023-06-14T20:43:46.593Z,25.26
2023-06-14T20:46:21.175Z,25.22
2023-06-14T20:48:51.222Z,25.18
2023-06-14T20:51:21.334Z,25.12
2023-06-14T20:53:51.234Z,25.10
2023-06-14T20:56:24.429Z,25.11
2023-06-14T20:58:55.134Z,25.09
2023-06-14T21:01:36.509Z,25.08
2023-06-14T21:04:08.284Z,25.06
2023-06-14T21:06:40.096Z,25.05
2023-06-14T21:09:10.149Z,25.03
2023-06-14T21:11:42.860Z,24.99
2023-06-14T21:14:12.900Z,24.95
2023-06-14T21:16:42.845Z,24.89
2023-06-14T21:19:13.013Z,24.84
2023-06-14T21:21:42.973Z,24.77
2023-06-14T21:24:12.926Z,24.76
2023-06-14T21:26:45.473Z,24.68
2023-06-14T21:29:15.511Z,24.59
2023-06-14T21:31:48.810Z,24.52
2023-06-14T21:34:19.050Z,24.42
2023-06-14T21:36:49.702Z,24.35
2023-06-14T21:39:19.596Z,24.27
2023-06-14T21:41:53.598Z,24.20
2023-06-14T21:44:23.721Z,24.11
2023-06-14T21:46:53.687Z,24.04
2023-06-14T21:49:23.635Z,23.97
2023-06-14T21:51:53.514Z,23.91
2023-06-14T21:54:23.478Z,23.85
2023-06-14T21:56:56.153Z,23.77
2023-06-14T21:59:26.381Z,23.72
2023-06-14T22:01:56.341Z,23.64
2023-06-14T22:04:26.282Z,23.57
2023-06-14T22:06:57.934Z,23.51
2023-06-14T22:09:27.971Z,23.45
2023-06-14T22:12:01.384Z,23.42
2023-06-14T22:14:32.218Z,23.40
2023-06-14T22:17:03.943Z,23.40
2023-06-14T22:19:34.597Z,23.39
2023-06-14T22:22:04.486Z,23.35
2023-06-14T22:24:34.608Z,23.34
2023-06-14T22:27:10.425Z,23.32
2023-06-14T22:29:44.861Z,23.30
2023-06-14T22:32:15.591Z,23.28
2023-06-14T22:34:46.192Z,23.24
2023-06-14T22:37:19.608Z,23.21
2023-06-14T22:39:49.622Z,23.16
2023-06-14T22:42:22.705Z,23.13
2023-06-14T22:44:52.657Z,23.09
2023-06-14T22:47:23.204Z,23.04
2023-06-14T22:50:08.237Z,22.97
2023-06-14T22:52:41.709Z,22.89
2023-06-14T22:55:12.897Z,22.79
2023-06-14T22:57:46.768Z,22.72
2023-06-14T23:00:18.666Z,22.66
2023-06-14T23:02:49.284Z,22.61
2023-06-14T23:05:20.490Z,22.55
2023-06-14T23:07:50.549Z,22.46
2023-06-14T23:10:24.115Z,22.42
2023-06-14T23:12:58.842Z,22.38
2023-06-14T23:15:29.942Z,22.31
2023-06-14T23:17:59.920Z,22.24
2023-06-14T23:20:30.671Z,22.18
2023-06-14T23:23:03.831Z,22.12
2023-06-14T23:25:35.937Z,22.08
2023-06-14T23:28:09.627Z,22.03
2023-06-14T23:30:40.078Z,21.99
2023-06-14T23:33:10.055Z,21.94
2023-06-14T23:35:41.742Z,21.90
2023-06-14T23:38:13.355Z,21.87
2023-06-14T23:40:43.348Z,21.85
2023-06-14T23:43:20.744Z,21.83
2023-06-14T23:45:54.257Z,21.81
2023-06-14T23:48:26.790Z,21.80
2023-06-14T23:50:56.878Z,21.79
2023-06-14T23:53:28.522Z,21.80
2023-06-14T23:55:58.429Z,21.80
2023-06-14T23:58:32.600Z,21.80
